sensor_id;sensor_type;location;lat;lon;timestamp;pressure;altitude;pressure_sealevel;temperature;humidity
61697;BME280;47610;52.252;20.922;2023-04-26T00:02:12;99439.60;;;8.66;100.00
61697;BME280;47610;52.252;20.922;2023-04-26T00:07:15;99442.63;;;8.59;100.00
61697;BME280;47610;52.252;20.922;2023-04-26T00:12:18;99446.18;;;8.53;100.00
61697;BME280;47610;52.252;20.922;2023-04-26T00:17:21;99452.60;;;8.44;100.00
61697;BME280;47610;52.252;20.922;2023-04-26T00:22:25;99461.83;;;8.39;100.00
61697;BME280;47610;52.252;20.922;2023-04-26T00:27:28;99469.55;;;8.37;100.00
61697;BME280;47610;52.252;20.922;2023-04-26T00:32:31;99471.39;;;8.26;100.00
61697;BME280;47610;52.252;20.922;2023-04-26T00:37:34;99473.10;;;8.11;100.00
61697;BME280;47610;52.252;20.922;2023-04-26T00:42:38;99480.27;;;8.00;100.00
61697;BME280;47610;52.252;20.922;2023-04-26T00:47:41;99490.00;;;7.94;100.00
61697;BME280;47610;52.252;20.922;2023-04-26T00:52:46;99492.34;;;7.96;100.00
61697;BME280;47610;52.252;20.922;2023-04-26T00:57:49;99494.14;;;8.00;100.00
61697;BME280;47610;52.252;20.922;2023-04-26T01:02:52;99500.48;;;8.04;100.00
61697;BME280;47610;52.252;20.922;2023-04-26T01:07:56;99503.71;;;8.06;100.00
61697;BME280;47610;52.252;20.922;2023-04-26T01:13:00;99499.42;;;8.09;100.00
61697;BME280;47610;52.252;20.922;2023-04-26T01:18:04;99501.61;;;8.12;100.00
61697;BME280;47610;52.252;20.922;2023-04-26T01:23:07;99504.02;;;8.11;100.00
61697;BME280;47610;52.252;20.922;2023-04-26T01:28:10;99510.41;;;8.15;100.00
61697;BME280;47610;52.252;20.922;2023-04-26T01:33:13;99508.64;;;8.21;100.00
61697;BME280;47610;52.252;20.922;2023-04-26T01:38:17;99511.80;;;8.23;100.00
61697;BME280;47610;52.252;20.922;2023-04-26T01:43:20;99517.45;;;8.24;100.00
61697;BME280;47610;52.252;20.922;2023-04-26T01:48:23;99513.38;;;8.18;100.00
61697;BME280;47610;52.252;20.922;2023-04-26T01:53:27;99508.88;;;8.15;100.00
61697;BME280;47610;52.252;20.922;2023-04-26T01:58:30;99506.59;;;8.12;100.00
61697;BME280;47610;52.252;20.922;2023-04-26T02:03:33;99506.15;;;8.11;100.00
61697;BME280;47610;52.252;20.922;2023-04-26T02:08:37;99506.92;;;8.12;100.00
61697;BME280;47610;52.252;20.922;2023-04-26T02:13:40;99516.95;;;8.13;100.00
61697;BME280;47610;52.252;20.922;2023-04-26T02:18:43;99518.97;;;8.17;100.00
61697;BME280;47610;52.252;20.922;2023-04-26T02:23:46;99523.13;;;8.20;100.00
61697;BME280;47610;52.252;20.922;2023-04-26T02:28:50;99523.77;;;8.20;100.00
61697;BME280;47610;52.252;20.922;2023-04-26T02:33:53;99524.60;;;8.18;100.00
61697;BME280;47610;52.252;20.922;2023-04-26T02:38:56;99521.00;;;8.12;100.00
61697;BME280;47610;52.252;20.922;2023-04-26T02:43:59;99518.50;;;8.07;100.00
61697;BME280;47610;52.252;20.922;2023-04-26T02:49:02;99524.23;;;8.05;100.00
61697;BME280;47610;52.252;20.922;2023-04-26T02:54:06;99523.18;;;8.03;100.00
61697;BME280;47610;52.252;20.922;2023-04-26T02:59:09;99522.42;;;8.00;100.00
61697;BME280;47610;52.252;20.922;2023-04-26T03:04:12;99523.70;;;7.96;100.00
61697;BME280;47610;52.252;20.922;2023-04-26T03:09:15;99526.61;;;7.95;100.00
61697;BME280;47610;52.252;20.922;2023-04-26T03:14:18;99524.21;;;7.88;100.00
61697;BME280;47610;52.252;20.922;2023-04-26T03:19:22;99525.27;;;7.69;100.00
61697;BME280;47610;52.252;20.922;2023-04-26T03:24:25;99528.38;;;7.42;100.00
61697;BME280;47610;52.252;20.922;2023-04-26T03:29:28;99528.44;;;7.26;100.00
61697;BME280;47610;52.252;20.922;2023-04-26T03:34:31;99528.89;;;7.08;100.00
61697;BME280;47610;52.252;20.922;2023-04-26T03:39:35;99536.15;;;6.91;100.00
61697;BME280;47610;52.252;20.922;2023-04-26T03:44:38;99540.52;;;6.76;100.00
61697;BME280;47610;52.252;20.922;2023-04-26T03:49:41;99540.92;;;6.68;100.00
61697;BME280;47610;52.252;20.922;2023-04-26T03:54:44;99545.30;;;6.64;100.00
61697;BME280;47610;52.252;20.922;2023-04-26T03:59:47;99549.00;;;6.61;100.00
61697;BME280;47610;52.252;20.922;2023-04-26T04:04:50;99548.22;;;6.55;100.00
61697;BME280;47610;52.252;20.922;2023-04-26T04:09:54;99555.13;;;6.61;100.00
61697;BME280;47610;52.252;20.922;2023-04-26T04:14:57;99557.02;;;6.71;100.00
61697;BME280;47610;52.252;20.922;2023-04-26T04:20:02;99555.35;;;6.91;100.00
61697;BME280;47610;52.252;20.922;2023-04-26T04:25:06;99560.03;;;7.20;100.00
61697;BME280;47610;52.252;20.922;2023-04-26T04:30:11;99563.20;;;7.94;100.00
61697;BME280;47610;52.252;20.922;2023-04-26T04:35:14;99568.91;;;10.38;100.00
61697;BME280;47610;52.252;20.922;2023-04-26T04:40:18;99575.17;;;13.09;100.00
61697;BME280;47610;52.252;20.922;2023-04-26T04:45:21;99578.30;;;15.23;100.00
61697;BME280;47610;52.252;20.922;2023-04-26T04:50:24;99586.14;;;17.05;100.00
61697;BME280;47610;52.252;20.922;2023-04-26T04:55:28;99594.99;;;18.74;100.00
61697;BME280;47610;52.252;20.922;2023-04-26T05:00:31;99604.77;;;20.36;100.00
61697;BME280;47610;52.252;20.922;2023-04-26T05:05:34;99610.37;;;21.37;92.07
61697;BME280;47610;52.252;20.922;2023-04-26T05:10:37;99612.45;;;20.08;68.45
61697;BME280;47610;52.252;20.922;2023-04-26T05:15:41;99615.73;;;19.63;66.51
61697;BME280;47610;52.252;20.922;2023-04-26T05:20:44;99622.28;;;18.19;67.07
61697;BME280;47610;52.252;20.922;2023-04-26T05:25:47;99622.27;;;16.51;70.62
61697;BME280;47610;52.252;20.922;2023-04-26T05:30:50;99620.98;;;16.33;74.76
61697;BME280;47610;52.252;20.922;2023-04-26T05:35:53;99630.83;;;18.00;74.64
61697;BME280;47610;52.252;20.922;2023-04-26T05:40:57;99638.38;;;19.08;68.70
61697;BME280;47610;52.252;20.922;2023-04-26T05:46:00;99643.02;;;19.27;65.50
61697;BME280;47610;52.252;20.922;2023-04-26T05:51:03;99637.66;;;19.97;64.68
61697;BME280;47610;52.252;20.922;2023-04-26T05:56:07;99638.17;;;20.62;60.64
61697;BME280;47610;52.252;20.922;2023-04-26T06:01:10;99636.79;;;21.83;55.59
61697;BME280;47610;52.252;20.922;2023-04-26T06:06:13;99641.50;;;21.99;51.75
61697;BME280;47610;52.252;20.922;2023-04-26T06:11:16;99640.83;;;21.11;52.34
61697;BME280;47610;52.252;20.922;2023-04-26T06:16:19;99643.64;;;21.44;51.68
61697;BME280;47610;52.252;20.922;2023-04-26T06:21:23;99644.69;;;21.74;46.85
61697;BME280;47610;52.252;20.922;2023-04-26T06:26:27;99644.86;;;22.03;47.22
61697;BME280;47610;52.252;20.922;2023-04-26T06:31:30;99642.39;;;21.27;46.05
61697;BME280;47610;52.252;20.922;2023-04-26T06:36:33;99643.60;;;20.52;45.29
61697;BME280;47610;52.252;20.922;2023-04-26T06:41:38;99642.29;;;20.11;48.29
61697;BME280;47610;52.252;20.922;2023-04-26T06:46:42;99645.71;;;20.38;49.00
61697;BME280;47610;52.252;20.922;2023-04-26T06:51:45;99652.10;;;21.32;45.25
61697;BME280;47610;52.252;20.922;2023-04-26T06:56:48;99649.34;;;22.11;42.85
61697;BME280;47610;52.252;20.922;2023-04-26T07:01:51;99655.32;;;22.42;40.54
61697;BME280;47610;52.252;20.922;2023-04-26T07:06:55;99653.17;;;22.23;40.27
61697;BME280;47610;52.252;20.922;2023-04-26T07:11:58;99652.86;;;21.83;39.29
61697;BME280;47610;52.252;20.922;2023-04-26T07:17:01;99657.52;;;20.81;38.43
61697;BME280;47610;52.252;20.922;2023-04-26T07:22:06;99662.79;;;21.48;38.69
61697;BME280;47610;52.252;20.922;2023-04-26T07:27:09;99657.70;;;20.85;38.28
61697;BME280;47610;52.252;20.922;2023-04-26T07:32:12;99665.46;;;21.26;37.60
61697;BME280;47610;52.252;20.922;2023-04-26T07:37:16;99669.25;;;22.06;36.08
61697;BME280;47610;52.252;20.922;2023-04-26T07:42:19;99666.54;;;23.27;34.12
61697;BME280;47610;52.252;20.922;2023-04-26T07:47:22;99671.71;;;23.75;32.83
61697;BME280;47610;52.252;20.922;2023-04-26T07:52:26;99673.48;;;21.80;33.09
61697;BME280;47610;52.252;20.922;2023-04-26T07:57:29;99682.56;;;21.37;34.41
61697;BME280;47610;52.252;20.922;2023-04-26T08:02:33;99682.05;;;21.27;34.54
61697;BME280;47610;52.252;20.922;2023-04-26T08:07:36;99684.70;;;19.71;36.09
61697;BME280;47610;52.252;20.922;2023-04-26T08:12:40;99682.05;;;19.84;37.47
61697;BME280;47610;52.252;20.922;2023-04-26T08:17:44;99687.96;;;18.92;35.88
61697;BME280;47610;52.252;20.922;2023-04-26T08:22:47;99690.81;;;18.62;36.94
61697;BME280;47610;52.252;20.922;2023-04-26T08:27:51;99686.01;;;19.22;38.23
61697;BME280;47610;52.252;20.922;2023-04-26T08:32:54;99687.73;;;20.85;36.57
61697;BME280;47610;52.252;20.922;2023-04-26T08:37:59;99691.91;;;21.03;34.92
61697;BME280;47610;52.252;20.922;2023-04-26T08:43:02;99691.89;;;18.94;34.84
61697;BME280;47610;52.252;20.922;2023-04-26T08:48:09;99692.52;;;16.94;38.24
61697;BME280;47610;52.252;20.922;2023-04-26T08:53:16;99690.38;;;17.75;41.55
61697;BME280;47610;52.252;20.922;2023-04-26T08:58:20;99696.88;;;18.19;40.67
61697;BME280;47610;52.252;20.922;2023-04-26T09:03:24;99692.64;;;17.02;41.32
61697;BME280;47610;52.252;20.922;2023-04-26T09:08:29;99699.06;;;16.09;43.04
61697;BME280;47610;52.252;20.922;2023-04-26T09:13:33;99704.39;;;15.37;45.00
61697;BME280;47610;52.252;20.922;2023-04-26T09:18:47;99710.61;;;14.62;47.09
61697;BME280;47610;52.252;20.922;2023-04-26T09:24:01;99715.67;;;13.79;49.48
61697;BME280;47610;52.252;20.922;2023-04-26T09:29:15;99721.09;;;13.12;51.72
61697;BME280;47610;52.252;20.922;2023-04-26T09:34:20;99722.67;;;12.70;53.69
61697;BME280;47610;52.252;20.922;2023-04-26T09:39:34;99727.89;;;13.63;55.54
61697;BME280;47610;52.252;20.922;2023-04-26T09:44:36;99721.33;;;13.48;52.45
61697;BME280;47610;52.252;20.922;2023-04-26T09:49:47;99729.79;;;13.06;53.18
61697;BME280;47610;52.252;20.922;2023-04-26T09:54:53;99730.44;;;12.62;52.38
61697;BME280;47610;52.252;20.922;2023-04-26T09:59:57;99730.70;;;12.43;54.16
61697;BME280;47610;52.252;20.922;2023-04-26T10:05:03;99728.93;;;12.63;55.33
61697;BME280;47610;52.252;20.922;2023-04-26T10:10:09;99726.69;;;12.85;54.75
61697;BME280;47610;52.252;20.922;2023-04-26T10:15:14;99728.94;;;12.57;52.38
61697;BME280;47610;52.252;20.922;2023-04-26T10:20:18;99733.38;;;12.05;52.95
61697;BME280;47610;52.252;20.922;2023-04-26T10:25:35;99735.83;;;11.93;55.38
61697;BME280;47610;52.252;20.922;2023-04-26T10:30:56;99732.15;;;12.23;55.63
61697;BME280;47610;52.252;20.922;2023-04-26T10:36:10;99732.91;;;12.29;53.91
61697;BME280;47610;52.252;20.922;2023-04-26T10:41:28;99740.64;;;12.03;53.56
61697;BME280;47610;52.252;20.922;2023-04-26T10:46:37;99749.26;;;11.80;55.51
61697;BME280;47610;52.252;20.922;2023-04-26T10:51:41;99753.60;;;11.72;54.23
61697;BME280;47610;52.252;20.922;2023-04-26T10:57:04;99749.66;;;11.75;53.76
61697;BME280;47610;52.252;20.922;2023-04-26T11:02:11;99751.25;;;11.95;54.17
61697;BME280;47610;52.252;20.922;2023-04-26T11:07:15;99749.86;;;12.20;54.31
61697;BME280;47610;52.252;20.922;2023-04-26T11:12:20;99761.70;;;12.14;53.30
61697;BME280;47610;52.252;20.922;2023-04-26T11:17:24;99771.23;;;11.94;54.62
61697;BME280;47610;52.252;20.922;2023-04-26T11:22:27;99774.05;;;11.77;55.68
61697;BME280;47610;52.252;20.922;2023-04-26T11:27:30;99768.91;;;11.47;55.63
61697;BME280;47610;52.252;20.922;2023-04-26T11:32:34;99777.72;;;11.23;54.95
61697;BME280;47610;52.252;20.922;2023-04-26T11:37:38;99777.98;;;11.44;55.55
61697;BME280;47610;52.252;20.922;2023-04-26T11:42:42;99773.81;;;11.66;56.76
61697;BME280;47610;52.252;20.922;2023-04-26T11:47:46;99779.16;;;11.87;56.20
61697;BME280;47610;52.252;20.922;2023-04-26T11:52:50;99780.23;;;11.73;53.98
61697;BME280;47610;52.252;20.922;2023-04-26T11:57:53;99777.87;;;11.69;53.11
61697;BME280;47610;52.252;20.922;2023-04-26T12:02:56;99785.25;;;11.69;52.68
61697;BME280;47610;52.252;20.922;2023-04-26T12:08:06;99786.67;;;11.62;52.16
61697;BME280;47610;52.252;20.922;2023-04-26T12:13:14;99794.02;;;11.61;52.92
61697;BME280;47610;52.252;20.922;2023-04-26T12:18:18;99793.34;;;11.63;51.69
61697;BME280;47610;52.252;20.922;2023-04-26T12:23:21;99795.95;;;11.69;50.70
61697;BME280;47610;52.252;20.922;2023-04-26T12:28:25;99799.05;;;11.57;50.20
61697;BME280;47610;52.252;20.922;2023-04-26T12:33:28;99809.20;;;11.26;50.90
61697;BME280;47610;52.252;20.922;2023-04-26T12:38:31;99813.67;;;11.00;49.66
61697;BME280;47610;52.252;20.922;2023-04-26T12:43:34;99812.09;;;10.89;49.91
61697;BME280;47610;52.252;20.922;2023-04-26T12:48:38;99814.34;;;10.92;51.43
61697;BME280;47610;52.252;20.922;2023-04-26T12:53:41;99816.71;;;11.00;52.20
61697;BME280;47610;52.252;20.922;2023-04-26T12:58:45;99824.20;;;11.00;52.23
61697;BME280;47610;52.252;20.922;2023-04-26T13:03:48;99837.88;;;10.87;51.43
61697;BME280;47610;52.252;20.922;2023-04-26T13:08:52;99839.36;;;10.65;51.33
61697;BME280;47610;52.252;20.922;2023-04-26T13:13:55;99844.58;;;10.41;53.29
61697;BME280;47610;52.252;20.922;2023-04-26T13:18:59;99848.65;;;10.33;55.26
61697;BME280;47610;52.252;20.922;2023-04-26T13:24:03;99844.84;;;10.63;56.96
61697;BME280;47610;52.252;20.922;2023-04-26T13:29:06;99843.42;;;10.83;55.84
61697;BME280;47610;52.252;20.922;2023-04-26T13:34:09;99847.73;;;10.78;54.56
61697;BME280;47610;52.252;20.922;2023-04-26T13:39:12;99851.91;;;10.76;54.62
61697;BME280;47610;52.252;20.922;2023-04-26T13:44:16;99856.06;;;10.81;54.29
61697;BME280;47610;52.252;20.922;2023-04-26T13:49:19;99864.23;;;10.84;54.67
61697;BME280;47610;52.252;20.922;2023-04-26T13:54:23;99870.80;;;10.88;54.88
61697;BME280;47610;52.252;20.922;2023-04-26T13:59:29;99869.21;;;11.00;54.15
61697;BME280;47610;52.252;20.922;2023-04-26T14:04:32;99871.11;;;10.96;52.08
61697;BME280;47610;52.252;20.922;2023-04-26T14:09:37;99876.04;;;10.99;51.67
61697;BME280;47610;52.252;20.922;2023-04-26T14:14:40;99880.70;;;11.01;51.76
61697;BME280;47610;52.252;20.922;2023-04-26T14:19:43;99890.23;;;10.90;52.29
61697;BME280;47610;52.252;20.922;2023-04-26T14:24:47;99897.55;;;10.74;53.58
61697;BME280;47610;52.252;20.922;2023-04-26T14:29:50;99896.41;;;10.55;54.02
61697;BME280;47610;52.252;20.922;2023-04-26T14:34:53;99908.35;;;10.49;55.95
61697;BME280;47610;52.252;20.922;2023-04-26T14:39:57;99915.34;;;10.40;57.25
61697;BME280;47610;52.252;20.922;2023-04-26T14:45:01;99916.20;;;10.38;57.93
61697;BME280;47610;52.252;20.922;2023-04-26T14:50:08;99917.82;;;10.49;58.07
61697;BME280;47610;52.252;20.922;2023-04-26T14:55:15;99920.20;;;10.55;58.68
61697;BME280;47610;52.252;20.922;2023-04-26T15:00:19;99925.56;;;10.57;59.24
61697;BME280;47610;52.252;20.922;2023-04-26T15:05:22;99924.80;;;10.49;59.96
61697;BME280;47610;52.252;20.922;2023-04-26T15:10:25;99927.48;;;10.43;61.87
61697;BME280;47610;52.252;20.922;2023-04-26T15:15:29;99932.16;;;10.44;63.60
61697;BME280;47610;52.252;20.922;2023-04-26T15:20:32;99936.89;;;10.46;64.06
61697;BME280;47610;52.252;20.922;2023-04-26T15:25:36;99941.33;;;10.38;64.82
61697;BME280;47610;52.252;20.922;2023-04-26T15:30:39;99946.02;;;10.25;65.68
61697;BME280;47610;52.252;20.922;2023-04-26T15:35:42;99948.25;;;10.17;66.38
61697;BME280;47610;52.252;20.922;2023-04-26T15:40:45;99945.24;;;10.13;66.91
61697;BME280;47610;52.252;20.922;2023-04-26T15:45:48;99946.33;;;10.16;66.73
61697;BME280;47610;52.252;20.922;2023-04-26T15:50:52;99946.41;;;10.20;67.37
61697;BME280;47610;52.252;20.922;2023-04-26T15:55:55;99944.86;;;10.22;66.94
61697;BME280;47610;52.252;20.922;2023-04-26T16:00:58;99946.74;;;10.21;66.71
61697;BME280;47610;52.252;20.922;2023-04-26T16:06:02;99941.73;;;10.13;66.58
61697;BME280;47610;52.252;20.922;2023-04-26T16:11:05;99942.77;;;10.04;65.71
61697;BME280;47610;52.252;20.922;2023-04-26T16:16:08;99944.75;;;9.91;66.08
61697;BME280;47610;52.252;20.922;2023-04-26T16:21:12;99950.36;;;9.88;65.89
61697;BME280;47610;52.252;20.922;2023-04-26T16:26:15;99948.52;;;9.85;66.53
61697;BME280;47610;52.252;20.922;2023-04-26T16:31:18;99952.94;;;9.79;66.47
61697;BME280;47610;52.252;20.922;2023-04-26T16:36:23;99957.73;;;9.74;66.44
61697;BME280;47610;52.252;20.922;2023-04-26T16:41:26;99961.42;;;9.75;67.26
61697;BME280;47610;52.252;20.922;2023-04-26T16:46:29;99962.63;;;9.73;67.70
61697;BME280;47610;52.252;20.922;2023-04-26T16:51:34;99966.35;;;9.64;67.73
61697;BME280;47610;52.252;20.922;2023-04-26T16:56:36;99965.77;;;9.57;69.47
61697;BME280;47610;52.252;20.922;2023-04-26T17:01:40;99971.92;;;9.53;70.96
61697;BME280;47610;52.252;20.922;2023-04-26T17:06:45;99972.37;;;9.50;71.73
61697;BME280;47610;52.252;20.922;2023-04-26T17:11:48;99975.89;;;9.48;71.69
61697;BME280;47610;52.252;20.922;2023-04-26T17:16:52;99983.33;;;9.45;72.17
61697;BME280;47610;52.252;20.922;2023-04-26T17:21:55;99981.95;;;9.41;72.74
61697;BME280;47610;52.252;20.922;2023-04-26T17:26:58;99988.78;;;9.33;73.11
61697;BME280;47610;52.252;20.922;2023-04-26T17:32:01;99990.22;;;9.28;73.51
61697;BME280;47610;52.252;20.922;2023-04-26T17:37:04;99996.88;;;9.26;74.52
61697;BME280;47610;52.252;20.922;2023-04-26T17:42:08;100001.27;;;9.24;74.83
61697;BME280;47610;52.252;20.922;2023-04-26T17:47:13;99998.30;;;9.19;75.44
61697;BME280;47610;52.252;20.922;2023-04-26T17:52:16;100004.95;;;9.15;76.04
61697;BME280;47610;52.252;20.922;2023-04-26T17:57:20;100009.13;;;9.11;75.99
61697;BME280;47610;52.252;20.922;2023-04-26T18:02:23;100018.09;;;9.05;75.91
61697;BME280;47610;52.252;20.922;2023-04-26T18:07:26;100027.14;;;8.97;75.99
61697;BME280;47610;52.252;20.922;2023-04-26T18:12:31;100029.11;;;8.90;76.73
61697;BME280;47610;52.252;20.922;2023-04-26T18:17:36;100037.66;;;8.83;77.06
61697;BME280;47610;52.252;20.922;2023-04-26T18:22:39;100036.55;;;8.77;77.17
61697;BME280;47610;52.252;20.922;2023-04-26T18:27:43;100042.58;;;8.73;77.28
61697;BME280;47610;52.252;20.922;2023-04-26T18:32:49;100047.84;;;8.69;77.46
61697;BME280;47610;52.252;20.922;2023-04-26T18:37:53;100047.22;;;8.64;77.73
61697;BME280;47610;52.252;20.922;2023-04-26T18:42:56;100056.34;;;8.59;78.48
61697;BME280;47610;52.252;20.922;2023-04-26T18:47:59;100062.52;;;8.56;78.74
61697;BME280;47610;52.252;20.922;2023-04-26T18:53:04;100060.14;;;8.52;78.74
61697;BME280;47610;52.252;20.922;2023-04-26T18:58:08;100064.95;;;8.47;79.12
61697;BME280;47610;52.252;20.922;2023-04-26T19:03:11;100069.11;;;8.42;78.92
61697;BME280;47610;52.252;20.922;2023-04-26T19:08:15;100072.73;;;8.34;78.84
61697;BME280;47610;52.252;20.922;2023-04-26T19:13:18;100076.24;;;8.24;78.71
61697;BME280;47610;52.252;20.922;2023-04-26T19:18:23;100077.47;;;8.15;79.53
61697;BME280;47610;52.252;20.922;2023-04-26T19:23:27;100081.00;;;8.07;80.76
61697;BME280;47610;52.252;20.922;2023-04-26T19:28:30;100083.33;;;8.01;82.12
61697;BME280;47610;52.252;20.922;2023-04-26T19:33:35;100087.63;;;7.96;82.81
61697;BME280;47610;52.252;20.922;2023-04-26T19:38:38;100086.20;;;7.89;83.83
61697;BME280;47610;52.252;20.922;2023-04-26T19:43:41;100089.34;;;7.80;84.84
61697;BME280;47610;52.252;20.922;2023-04-26T19:48:44;100087.95;;;7.78;86.19
61697;BME280;47610;52.252;20.922;2023-04-26T19:53:48;100090.92;;;7.80;86.72
61697;BME280;47610;52.252;20.922;2023-04-26T19:58:51;100092.92;;;7.84;87.39
61697;BME280;47610;52.252;20.922;2023-04-26T20:03:55;100097.76;;;7.85;87.39
61697;BME280;47610;52.252;20.922;2023-04-26T20:08:59;100096.52;;;7.79;87.98
61697;BME280;47610;52.252;20.922;2023-04-26T20:14:03;100098.61;;;7.65;88.57
61697;BME280;47610;52.252;20.922;2023-04-26T20:19:06;100101.69;;;7.52;89.48
61697;BME280;47610;52.252;20.922;2023-04-26T20:24:09;100101.69;;;7.37;90.37
61697;BME280;47610;52.252;20.922;2023-04-26T20:29:13;100105.38;;;7.27;91.71
61697;BME280;47610;52.252;20.922;2023-04-26T20:34:16;100107.61;;;7.20;92.66
61697;BME280;47610;52.252;20.922;2023-04-26T20:39:19;100108.48;;;7.15;93.95
61697;BME280;47610;52.252;20.922;2023-04-26T20:44:22;100108.86;;;7.12;94.96
61697;BME280;47610;52.252;20.922;2023-04-26T20:49:25;100109.39;;;7.09;96.04
61697;BME280;47610;52.252;20.922;2023-04-26T20:54:29;100107.88;;;7.07;96.81
61697;BME280;47610;52.252;20.922;2023-04-26T20:59:32;100104.89;;;7.05;97.55
61697;BME280;47610;52.252;20.922;2023-04-26T21:04:35;100107.29;;;7.03;98.47
61697;BME280;47610;52.252;20.922;2023-04-26T21:09:38;100115.23;;;6.98;98.76
61697;BME280;47610;52.252;20.922;2023-04-26T21:14:41;100118.70;;;6.95;99.88
61697;BME280;47610;52.252;20.922;2023-04-26T21:19:45;100120.45;;;6.89;100.00
61697;BME280;47610;52.252;20.922;2023-04-26T21:24:50;100127.59;;;6.82;100.00
61697;BME280;47610;52.252;20.922;2023-04-26T21:29:53;100134.41;;;6.75;100.00
61697;BME280;47610;52.252;20.922;2023-04-26T21:34:57;100136.98;;;6.70;100.00
61697;BME280;47610;52.252;20.922;2023-04-26T21:40:00;100140.70;;;6.65;100.00
61697;BME280;47610;52.252;20.922;2023-04-26T21:45:04;100148.81;;;6.60;100.00
61697;BME280;47610;52.252;20.922;2023-04-26T21:50:08;100152.46;;;6.56;100.00
61697;BME280;47610;52.252;20.922;2023-04-26T21:55:12;100159.13;;;6.51;100.00
61697;BME280;47610;52.252;20.922;2023-04-26T22:00:16;100161.72;;;6.48;100.00
61697;BME280;47610;52.252;20.922;2023-04-26T22:05:19;100161.00;;;6.44;100.00
61697;BME280;47610;52.252;20.922;2023-04-26T22:10:22;100169.79;;;6.38;100.00
61697;BME280;47610;52.252;20.922;2023-04-26T22:15:25;100172.86;;;6.30;100.00
61697;BME280;47610;52.252;20.922;2023-04-26T22:20:29;100176.60;;;6.24;100.00
61697;BME280;47610;52.252;20.922;2023-04-26T22:25:32;100178.27;;;6.20;100.00
61697;BME280;47610;52.252;20.922;2023-04-26T22:30:35;100187.02;;;6.15;100.00
61697;BME280;47610;52.252;20.922;2023-04-26T22:35:38;100190.23;;;6.10;100.00
61697;BME280;47610;52.252;20.922;2023-04-26T22:40:42;100192.51;;;6.05;100.00
61697;BME280;47610;52.252;20.922;2023-04-26T22:45:45;100195.49;;;6.00;100.00
61697;BME280;47610;52.252;20.922;2023-04-26T22:50:49;100202.23;;;5.96;100.00
61697;BME280;47610;52.252;20.922;2023-04-26T22:55:52;100208.17;;;5.92;100.00
61697;BME280;47610;52.252;20.922;2023-04-26T23:00:56;100209.90;;;5.87;100.00
61697;BME280;47610;52.252;20.922;2023-04-26T23:05:59;100219.09;;;5.81;100.00
61697;BME280;47610;52.252;20.922;2023-04-26T23:11:08;100224.55;;;5.71;100.00
61697;BME280;47610;52.252;20.922;2023-04-26T23:16:12;100228.04;;;5.61;100.00
61697;BME280;47610;52.252;20.922;2023-04-26T23:21:15;100234.84;;;5.54;100.00
61697;BME280;47610;52.252;20.922;2023-04-26T23:26:18;100237.71;;;5.46;100.00
61697;BME280;47610;52.252;20.922;2023-04-26T23:31:21;100235.61;;;5.42;100.00
61697;BME280;47610;52.252;20.922;2023-04-26T23:36:24;100243.58;;;5.39;100.00
61697;BME280;47610;52.252;20.922;2023-04-26T23:41:28;100245.80;;;5.37;100.00
61697;BME280;47610;52.252;20.922;2023-04-26T23:46:31;100246.86;;;5.36;100.00
61697;BME280;47610;52.252;20.922;2023-04-26T23:51:34;100246.66;;;5.33;100.00
61697;BME280;47610;52.252;20.922;2023-04-26T23:56:37;100245.82;;;5.29;100.00
